Time;durP1;ratioP1;P1;durP2;ratioP2;P2;SDS_P1;SDS_P2;PMS_P1;PMS_P2;Temp;Humidity;BMP_temperature;BMP_pressure;BME280_temperature;BME280_humidity;BME280_pressure;Samples;Min_cycle;Max_cycle;Signal;HPM_P1;HPM_P2
2023/10/13 00:00:36;;;;;;;9.40;6.80;;;15.90;99.90;;;;;;6105671;23;20361;-74
2023/10/13 00:03:06;;;;;;;11.00;7.27;;;15.90;99.90;;;;;;6105039;23;20690;-74
2023/10/13 00:05:33;;;;;;;11.10;7.10;;;15.90;99.90;;;;;;6105196;23;20428;-74
2023/10/13 00:08:03;;;;;;;13.13;8.00;;;15.90;99.90;;;;;;6106861;23;20372;-73
2023/10/13 00:10:30;;;;;;;8.70;6.07;;;15.90;99.90;;;;;;6107243;23;20401;-73
2023/10/13 00:13:06;;;;;;;11.20;6.70;;;15.80;99.90;;;;;;6103861;23;20376;-73
2023/10/13 00:15:44;;;;;;;13.20;7.50;;;15.80;99.90;;;;;;6105328;23;20546;-74
2023/10/13 00:18:13;;;;;;;11.20;6.87;;;16.00;99.90;;;;;;6104329;23;20380;-74
2023/10/13 00:20:48;;;;;;;11.77;7.50;;;15.90;99.90;;;;;;6106188;23;20694;-73
2023/10/13 00:23:15;;;;;;;10.33;6.60;;;15.90;99.90;;;;;;6104945;23;20391;-73
2023/10/13 00:25:49;;;;;;;7.30;5.33;;;15.90;99.90;;;;;;6106547;23;20365;-72
2023/10/13 00:28:23;;;;;;;6.90;5.87;;;15.90;99.90;;;;;;6106052;23;20359;-74
2023/10/13 00:31:00;;;;;;;9.83;5.73;;;16.00;99.90;;;;;;6107652;23;20361;-79
2023/10/13 00:33:27;;;;;;;14.37;7.63;;;16.00;99.90;;;;;;6104635;23;20468;-72
2023/10/13 00:35:57;;;;;;;13.23;7.63;;;15.90;99.90;;;;;;6102893;23;20381;-73
2023/10/13 00:38:24;;;;;;;14.97;9.80;;;15.90;99.90;;;;;;6105746;23;20145;-74
2023/10/13 00:40:53;;;;;;;18.50;9.70;;;15.90;99.90;;;;;;6103494;23;20393;-72
2023/10/13 00:46:12;;;;;;;15.47;9.37;;;15.90;99.90;;;;;;6104512;23;20408;-72
2023/10/13 00:48:51;;;;;;;14.53;9.57;;;15.90;99.90;;;;;;6105017;23;20782;-73
2023/10/13 00:54:11;;;;;;;14.40;8.77;;;15.90;99.90;;;;;;6112325;23;20416;-75
2023/10/13 00:56:49;;;;;;;13.47;7.80;;;15.90;99.90;;;;;;6103381;23;20412;-74
2023/10/13 00:59:19;;;;;;;11.77;7.00;;;15.90;99.90;;;;;;6108630;23;20361;-74
2023/10/13 01:01:49;;;;;;;10.17;7.23;;;15.90;99.90;;;;;;6104369;23;20361;-74
2023/10/13 01:04:15;;;;;;;10.67;6.40;;;15.90;99.90;;;;;;6083411;23;20425;-74
2023/10/13 01:06:41;;;;;;;7.60;6.30;;;15.80;99.90;;;;;;6108515;23;20388;-74
2023/10/13 01:09:18;;;;;;;7.57;5.77;;;15.80;99.90;;;;;;6103845;23;20149;-73
2023/10/13 01:11:52;;;;;;;9.00;6.00;;;15.90;99.90;;;;;;6080383;23;20148;-74
2023/10/13 01:14:18;;;;;;;7.70;5.60;;;15.90;99.90;;;;;;6078567;23;20459;-73
2023/10/13 01:16:45;;;;;;;8.43;6.23;;;15.90;99.90;;;;;;6102327;23;20366;-76
2023/10/13 01:19:19;;;;;;;7.43;5.50;;;15.90;99.90;;;;;;6078560;23;20435;-73
2023/10/13 01:21:49;;;;;;;8.93;6.47;;;15.90;99.90;;;;;;6102583;23;20361;-75
2023/10/13 01:24:17;;;;;;;12.37;6.80;;;15.90;99.90;;;;;;6109297;23;20389;-75
2023/10/13 01:26:43;;;;;;;13.43;8.70;;;15.90;99.90;;;;;;6104278;23;20406;-75
2023/10/13 01:29:12;;;;;;;21.90;10.63;;;16.00;99.90;;;;;;6104414;23;20723;-73
2023/10/13 01:31:45;;;;;;;19.53;11.77;;;15.90;99.90;;;;;;6104512;23;20441;-73
2023/10/13 01:34:19;;;;;;;19.43;11.70;;;15.90;99.90;;;;;;6117762;23;20865;-73
2023/10/13 01:36:45;;;;;;;21.80;12.27;;;15.90;99.90;;;;;;6139511;23;20771;-73
2023/10/13 01:39:16;;;;;;;16.50;10.60;;;15.90;99.90;;;;;;6117158;23;20397;-74
2023/10/13 01:41:42;;;;;;;20.37;12.50;;;15.90;99.90;;;;;;6123309;23;20144;-75
2023/10/13 01:44:12;;;;;;;15.10;10.10;;;15.90;99.90;;;;;;6136837;23;20379;-75
2023/10/13 01:46:38;;;;;;;15.30;10.40;;;16.00;99.90;;;;;;6143317;23;20364;-73
2023/10/13 01:49:04;;;;;;;16.37;9.70;;;15.90;99.90;;;;;;6139051;23;20352;-74
2023/10/13 01:51:30;;;;;;;15.30;9.43;;;16.00;99.90;;;;;;6111419;23;20413;-75
2023/10/13 01:53:58;;;;;;;22.30;13.37;;;15.90;99.90;;;;;;6112235;23;20641;-73
2023/10/13 01:56:25;;;;;;;23.90;15.20;;;15.90;99.90;;;;;;6115539;23;20179;-75
2023/10/13 01:58:51;;;;;;;25.93;14.20;;;15.90;99.90;;;;;;6118057;23;20372;-73
2023/10/13 02:01:26;;;;;;;25.80;14.07;;;15.90;99.90;;;;;;6111947;23;20377;-73
2023/10/13 02:04:04;;;;;;;21.73;12.73;;;15.90;99.90;;;;;;6137334;23;20402;-73
2023/10/13 02:06:36;;;;;;;20.87;12.13;;;15.90;99.90;;;;;;6135857;23;20633;-74
2023/10/13 02:09:12;;;;;;;22.10;13.13;;;16.00;99.90;;;;;;6113552;23;20376;-73
2023/10/13 02:11:49;;;;;;;25.40;13.23;;;15.90;99.90;;;;;;6111497;23;20387;-74
2023/10/13 02:14:18;;;;;;;20.03;11.43;;;15.90;99.90;;;;;;6111746;23;20889;-74
2023/10/13 02:16:46;;;;;;;20.00;11.20;;;16.00;99.90;;;;;;6111844;23;20372;-73
2023/10/13 02:19:15;;;;;;;16.10;10.00;;;15.90;99.90;;;;;;6137017;23;20395;-74
2023/10/13 02:21:43;;;;;;;18.80;11.53;;;16.00;99.90;;;;;;6111838;23;20393;-73
2023/10/13 02:24:13;;;;;;;18.00;11.00;;;16.00;99.90;;;;;;6088299;23;20438;-73
2023/10/13 02:26:40;;;;;;;16.30;10.50;;;16.00;99.90;;;;;;6111324;23;20376;-73
2023/10/13 02:29:12;;;;;;;19.40;12.27;;;16.00;99.90;;;;;;6111365;23;20403;-74
2023/10/13 02:31:40;;;;;;;19.03;12.00;;;16.00;99.90;;;;;;6112699;23;20380;-73
2023/10/13 02:34:07;;;;;;;22.73;12.20;;;16.00;99.90;;;;;;6111116;23;20437;-74
2023/10/13 02:36:46;;;;;;;17.47;11.40;;;16.00;99.90;;;;;;6137537;23;20368;-73
2023/10/13 02:39:13;;;;;;;18.03;10.50;;;16.00;99.90;;;;;;6111777;23;20403;-73
2023/10/13 02:41:40;;;;;;;19.83;10.30;;;16.00;99.90;;;;;;6136800;23;20607;-74
2023/10/13 02:44:06;;;;;;;22.13;12.30;;;16.00;99.90;;;;;;6084280;23;20414;-75
2023/10/13 02:46:35;;;;;;;26.83;14.03;;;16.00;99.90;;;;;;6108690;23;20368;-73
2023/10/13 02:49:09;;;;;;;28.33;14.30;;;16.00;99.90;;;;;;6134257;23;20625;-74
2023/10/13 02:51:36;;;;;;;21.27;12.90;;;16.00;99.90;;;;;;6136045;23;20372;-73
2023/10/13 02:54:03;;;;;;;21.17;14.20;;;16.00;99.90;;;;;;6107672;23;20506;-73
2023/10/13 02:56:34;;;;;;;19.90;12.93;;;16.00;99.90;;;;;;6108275;23;20391;-75
2023/10/13 02:59:04;;;;;;;17.30;11.20;;;16.00;99.90;;;;;;6134755;23;20365;-74
2023/10/13 03:01:34;;;;;;;15.10;9.70;;;16.10;99.90;;;;;;6109648;23;20165;-73
2023/10/13 03:04:01;;;;;;;16.87;10.27;;;16.00;99.90;;;;;;6109292;23;20412;-73
2023/10/13 03:06:33;;;;;;;15.90;11.07;;;16.10;99.90;;;;;;6108010;23;20380;-73
2023/10/13 03:09:13;;;;;;;15.23;10.87;;;16.00;99.90;;;;;;6135214;23;20360;-73
2023/10/13 03:11:47;;;;;;;13.90;9.33;;;16.00;99.90;;;;;;6108935;23;20463;-73
2023/10/13 03:14:23;;;;;;;17.40;10.17;;;16.00;99.90;;;;;;6108990;23;20681;-73
2023/10/13 03:16:54;;;;;;;22.60;12.57;;;16.10;99.90;;;;;;6134480;23;20651;-74
2023/10/13 03:19:20;;;;;;;21.63;13.67;;;16.00;99.90;;;;;;6093085;23;20372;-75
2023/10/13 03:21:57;;;;;;;25.83;14.50;;;16.10;99.90;;;;;;6138195;23;20595;-71
2023/10/13 03:24:33;;;;;;;30.63;16.57;;;16.10;99.90;;;;;;6109790;23;20401;-73
2023/10/13 03:27:11;;;;;;;38.43;19.03;;;16.10;99.90;;;;;;6134455;23;20375;-74
2023/10/13 03:29:42;;;;;;;35.90;18.80;;;16.00;99.90;;;;;;6109018;23;20379;-74
2023/10/13 03:32:12;;;;;;;31.60;17.17;;;16.10;99.90;;;;;;6108808;23;20351;-72
2023/10/13 03:35:24;;;;;;;36.47;20.97;;;16.00;99.90;;;;;;6133735;23;20554;-74
2023/10/13 03:37:38;;;;;;;35.27;20.60;;;16.00;99.90;;;;;;6128630;23;20653;-72
2023/10/13 03:42:59;;;;;;;40.23;21.20;;;16.00;99.90;;;;;;6134628;23;20364;-73
2023/10/13 03:45:26;;;;;;;37.20;20.37;;;16.00;99.90;;;;;;6134561;23;20446;-75
2023/10/13 03:47:54;;;;;;;31.03;17.67;;;16.00;99.90;;;;;;6134484;23;20453;-74
2023/10/13 03:50:30;;;;;;;31.83;18.00;;;16.00;99.90;;;;;;6108015;23;20372;-72
2023/10/13 03:52:59;;;;;;;38.90;19.57;;;16.00;99.90;;;;;;6133198;23;20368;-73
2023/10/13 03:55:29;;;;;;;37.43;21.53;;;16.00;99.90;;;;;;6085484;23;20723;-74
2023/10/13 03:57:54;;;;;;;48.10;22.87;;;16.10;99.90;;;;;;6110622;23;20410;-72
2023/10/13 04:00:24;;;;;;;40.87;20.50;;;16.00;99.90;;;;;;6134048;23;20445;-73
2023/10/13 04:03:08;;;;;;;35.27;17.50;;;16.10;99.90;;;;;;6133042;23;20140;-72
2023/10/13 04:05:42;;;;;;;36.80;18.90;;;16.10;99.90;;;;;;6108476;23;20661;-74
2023/10/13 04:24:23;;;;;;;28.40;15.77;;;16.20;99.90;;;;;;6134125;23;20474;-73
2023/10/13 04:27:19;;;;;;;39.93;19.77;;;16.20;99.90;;;;;;6135029;23;20692;-73
2023/10/13 04:32:28;;;;;;;29.43;17.67;;;16.30;99.90;;;;;;6135731;23;20390;-73
2023/10/13 04:37:50;;;;;;;24.27;15.00;;;16.20;99.90;;;;;;6110177;23;20459;-74
2023/10/13 04:40:19;;;;;;;26.57;16.23;;;16.30;99.90;;;;;;6109565;23;20428;-73
2023/10/13 04:42:49;;;;;;;36.97;18.73;;;16.40;99.90;;;;;;6136248;23;20630;-74
2023/10/13 04:50:50;;;;;;;27.37;16.40;;;16.40;99.90;;;;;;6137716;23;20374;-75
2023/10/13 05:01:39;;;;;;;23.63;13.60;;;16.40;99.90;;;;;;6136056;23;20830;-75
2023/10/13 05:45:23;;;;;;;27.57;15.57;;;16.70;99.90;;;;;;6112989;23;20441;-73
2023/10/13 06:28:42;;;;;;;19.27;11.67;;;16.80;99.90;;;;;;6121876;23;20370;-75
2023/10/13 06:31:21;;;;;;;21.20;12.03;;;16.80;99.90;;;;;;6119693;23;20446;-74
2023/10/13 06:33:47;;;;;;;22.33;13.53;;;16.90;99.90;;;;;;6097748;23;20411;-75
2023/10/13 06:36:13;;;;;;;26.70;15.13;;;16.90;99.90;;;;;;6124007;23;20434;-76
2023/10/13 06:38:39;;;;;;;31.43;16.87;;;17.00;99.90;;;;;;6119790;23;20405;-77
2023/10/13 06:41:05;;;;;;;27.37;15.90;;;17.00;99.90;;;;;;6120732;23;20153;-76
2023/10/13 06:43:43;;;;;;;27.00;15.27;;;16.90;99.90;;;;;;6124957;23;20397;-76
2023/10/13 06:46:16;;;;;;;26.17;15.17;;;17.00;99.90;;;;;;6096516;23;20372;-74
2023/10/13 06:48:43;;;;;;;23.87;14.67;;;17.00;99.90;;;;;;6120342;23;20521;-75
2023/10/13 06:51:17;;;;;;;26.57;13.57;;;17.00;99.90;;;;;;6144165;23;20382;-75
2023/10/13 06:53:47;;;;;;;23.93;12.53;;;17.00;99.90;;;;;;6118343;23;20449;-76
2023/10/13 06:56:21;;;;;;;22.30;13.00;;;17.00;99.90;;;;;;6142612;23;20455;-77
2023/10/13 06:58:47;;;;;;;19.30;13.40;;;17.10;99.90;;;;;;6143745;23;20369;-76
2023/10/13 07:01:21;;;;;;;21.03;13.10;;;17.10;99.90;;;;;;6146822;23;20360;-78
2023/10/13 07:03:53;;;;;;;22.80;13.50;;;17.10;99.90;;;;;;6122287;23;20436;-76
2023/10/13 07:06:20;;;;;;;28.80;16.07;;;17.20;99.90;;;;;;6120903;23;20377;-77
2023/10/13 07:08:51;;;;;;;18.00;11.50;;;17.20;99.90;;;;;;6122679;23;20374;-74
2023/10/13 07:11:33;;;;;;;20.17;11.50;;;17.20;99.90;;;;;;6144060;23;20402;-77
2023/10/13 07:14:09;;;;;;;27.03;12.97;;;17.30;99.90;;;;;;6088893;23;20614;-75
2023/10/13 07:16:45;;;;;;;16.43;11.37;;;17.30;99.90;;;;;;6112220;23;20383;-76
2023/10/13 07:19:17;;;;;;;18.03;11.93;;;17.30;99.90;;;;;;6092656;23;20380;-76
2023/10/13 07:21:45;;;;;;;19.90;12.17;;;17.50;99.90;;;;;;6041136;23;20385;-75
2023/10/13 07:24:12;;;;;;;22.90;12.57;;;17.40;99.90;;;;;;6088294;23;20404;-76
2023/10/13 07:26:47;;;;;;;15.13;10.73;;;17.50;99.90;;;;;;6112492;23;20373;-75
2023/10/13 07:29:14;;;;;;;12.53;9.30;;;17.40;99.90;;;;;;6089373;23;20378;-75
2023/10/13 07:31:44;;;;;;;17.50;11.60;;;17.50;99.90;;;;;;6116117;23;20367;-78
2023/10/13 07:34:24;;;;;;;23.60;13.67;;;17.50;99.90;;;;;;6093827;23;20428;-76
2023/10/13 07:37:12;;;;;;;19.97;11.67;;;17.60;99.90;;;;;;6070783;23;20379;-77
2023/10/13 07:39:42;;;;;;;15.80;10.20;;;17.60;99.90;;;;;;6091500;23;20387;-76
2023/10/13 07:42:19;;;;;;;20.03;10.83;;;17.60;99.90;;;;;;6068871;23;20428;-76
2023/10/13 07:44:48;;;;;;;16.73;9.80;;;17.60;99.90;;;;;;6112224;23;20415;-77
2023/10/13 07:47:14;;;;;;;12.97;9.60;;;17.60;99.90;;;;;;6121088;23;20380;-78
2023/10/13 07:49:41;;;;;;;23.03;12.53;;;17.60;99.90;;;;;;6121942;23;20462;-77
2023/10/13 07:54:50;;;;;;;11.40;9.20;;;17.80;99.90;;;;;;6146369;23;20511;-75
2023/10/13 07:57:18;;;;;;;11.80;8.97;;;17.80;99.90;;;;;;6120045;23;20384;-76
2023/10/13 07:59:53;;;;;;;8.60;7.70;;;18.00;99.90;;;;;;6119820;23;20785;-76
2023/10/13 08:05:15;;;;;;;7.93;7.23;;;18.30;99.90;;;;;;6147865;23;20395;-76
2023/10/13 08:07:41;;;;;;;7.73;6.60;;;18.40;99.90;;;;;;6142959;23;20379;-77
2023/10/13 08:10:10;;;;;;;9.80;7.23;;;18.60;99.90;;;;;;6118285;23;20380;-75
2023/10/13 08:12:37;;;;;;;7.43;6.63;;;18.70;99.90;;;;;;6144488;23;20367;-75
2023/10/13 08:15:31;;;;;;;7.73;6.93;;;18.80;99.90;;;;;;6119548;23;20959;-78
2023/10/13 08:18:17;;;;;;;7.90;6.67;;;19.00;99.90;;;;;;6144640;23;20388;-76
2023/10/13 08:20:44;;;;;;;9.50;7.43;;;19.20;99.90;;;;;;6124336;23;20472;-78
2023/10/13 08:23:34;;;;;;;8.43;6.87;;;19.20;99.90;;;;;;6149238;23;20380;-78
2023/10/13 08:26:29;;;;;;;14.47;8.70;;;19.30;99.90;;;;;;6147607;23;20391;-77
2023/10/13 08:29:49;;;;;;;12.57;8.33;;;19.30;99.90;;;;;;6124620;23;20375;-74
2023/10/13 08:48:14;;;;;;;10.87;7.10;;;20.20;99.90;;;;;;6145510;23;20453;-77
2023/10/13 08:56:18;;;;;;;7.93;5.17;;;20.60;99.90;;;;;;6149723;23;20446;-79
2023/10/13 09:05:36;;;;;;;11.00;6.23;;;20.90;99.90;;;;;;6145130;23;20437;-77
2023/10/13 09:07:48;;;;;;;7.30;6.00;;;21.00;99.90;;;;;;6106122;23;20750;-77
2023/10/13 09:11:05;;;;;;;5.97;4.93;;;21.00;99.90;;;;;;6095504;23;21336;-78
2023/10/13 09:13:20;;;;;;;8.40;6.70;;;21.10;99.90;;;;;;6120171;23;20427;-76
2023/10/13 09:16:02;;;;;;;8.23;7.10;;;21.20;99.90;;;;;;6122520;23;20430;-78
2023/10/13 09:18:47;;;;;;;13.20;7.27;;;21.30;99.90;;;;;;6102580;23;20379;-76
2023/10/13 09:21:43;;;;;;;8.90;6.50;;;21.40;99.90;;;;;;6104696;23;20391;-77
2023/10/13 09:24:21;;;;;;;10.53;6.40;;;21.50;99.90;;;;;;6128878;23;20387;-78
2023/10/13 09:26:55;;;;;;;12.67;6.97;;;21.60;99.90;;;;;;6105584;23;20375;-76
2023/10/13 09:29:25;;;;;;;9.83;8.30;;;21.70;99.90;;;;;;6014917;23;20371;-78
2023/10/13 09:32:03;;;;;;;8.23;6.00;;;21.70;99.90;;;;;;6106515;23;20364;-77
2023/10/13 09:34:30;;;;;;;6.90;5.77;;;21.80;99.90;;;;;;6079914;23;20696;-76
2023/10/13 09:37:04;;;;;;;7.80;5.40;;;21.80;99.90;;;;;;6104525;23;20440;-78
2023/10/13 09:39:52;;;;;;;14.10;6.90;;;22.00;99.90;;;;;;6079575;23;20372;-76
2023/10/13 09:42:18;;;;;;;10.17;6.40;;;22.10;99.90;;;;;;6103624;23;20379;-77
2023/10/13 09:45:04;;;;;;;9.53;7.03;;;22.00;99.90;;;;;;6151878;23;20395;-78
2023/10/13 09:47:36;;;;;;;12.40;6.53;;;22.10;99.90;;;;;;6052120;23;20368;-77
2023/10/13 09:50:25;;;;;;;7.73;6.40;;;22.10;99.90;;;;;;6098578;23;20461;-78
2023/10/13 09:52:58;;;;;;;11.90;7.47;;;22.20;99.90;;;;;;6076889;23;20467;-78
2023/10/13 09:55:51;;;;;;;15.13;6.60;;;22.30;99.90;;;;;;6121593;23;20467;-78
2023/10/13 09:58:29;;;;;;;13.47;7.90;;;22.40;99.90;;;;;;6073299;23;20396;-76
2023/10/13 10:01:07;;;;;;;8.40;6.70;;;22.40;99.90;;;;;;6095324;23;20369;-74
2023/10/13 10:04:07;;;;;;;10.17;7.13;;;22.50;99.90;;;;;;6120566;23;20415;-78
2023/10/13 10:16:41;;;;;;;13.43;6.70;;;23.10;99.90;;;;;;6148100;23;20442;-79
2023/10/13 10:27:35;;;;;;;12.53;7.80;;;23.40;94.10;;;;;;6116165;23;20448;-78
2023/10/13 10:30:13;;;;;;;8.73;7.37;;;23.50;93.60;;;;;;6062441;23;20378;-78
2023/10/13 10:32:48;;;;;;;15.53;8.67;;;23.60;92.70;;;;;;6063577;23;20386;-79
2023/10/13 10:35:40;;;;;;;10.17;8.17;;;23.70;91.70;;;;;;6117846;23;20448;-78
2023/10/13 10:38:13;;;;;;;16.80;8.70;;;23.80;90.80;;;;;;6152200;23;20391;-79
2023/10/13 10:41:06;;;;;;;13.13;8.17;;;23.80;90.50;;;;;;6152509;23;20414;-79
2023/10/13 10:43:42;;;;;;;10.50;7.03;;;23.80;89.50;;;;;;6116113;23;20468;-79
2023/10/13 10:46:51;;;;;;;12.80;8.47;;;24.00;89.50;;;;;;6030542;23;20432;-78
2023/10/13 10:49:37;;;;;;;12.43;7.10;;;24.00;87.00;;;;;;6038512;23;20394;-78
2023/10/13 10:52:36;;;;;;;13.03;8.40;;;24.20;85.90;;;;;;6024477;23;20377;-78
2023/10/13 10:55:13;;;;;;;10.13;7.90;;;24.30;83.90;;;;;;6094542;23;20429;-78
2023/10/13 10:57:44;;;;;;;7.73;6.93;;;24.00;83.70;;;;;;6049814;23;20397;-78
2023/10/13 11:00:29;;;;;;;12.13;7.90;;;23.90;84.50;;;;;;6045317;23;20376;-78
2023/10/13 11:03:04;;;;;;;9.70;8.70;;;23.80;85.10;;;;;;6044549;23;20385;-77
2023/10/13 11:05:46;;;;;;;11.13;7.93;;;23.70;85.30;;;;;;6042850;23;20365;-77
2023/10/13 11:08:37;;;;;;;9.97;7.93;;;23.70;84.50;;;;;;6094227;23;20425;-78
2023/10/13 11:11:35;;;;;;;13.07;8.10;;;23.40;86.30;;;;;;6018549;23;20379;-79
2023/10/13 11:19:44;;;;;;;11.90;7.57;;;23.30;86.10;;;;;;6128879;23;20458;-78
2023/10/13 11:22:59;;;;;;;12.73;7.60;;;23.30;84.80;;;;;;6093919;23;20401;-78
2023/10/13 11:26:08;;;;;;;9.43;7.43;;;23.60;82.20;;;;;;6064561;23;20382;-79
2023/10/13 11:28:59;;;;;;;10.80;7.00;;;23.90;81.50;;;;;;6062841;23;20398;-78
2023/10/13 11:34:48;;;;;;;10.17;6.73;;;24.10;79.30;;;;;;6093347;23;20448;-79
2023/10/13 11:37:43;;;;;;;7.00;6.30;;;24.00;78.20;;;;;;6071092;23;20385;-78
2023/10/13 11:40:13;;;;;;;10.80;7.33;;;24.00;78.10;;;;;;6071949;23;20381;-78
2023/10/13 11:46:12;;;;;;;16.87;7.73;;;24.20;77.20;;;;;;6114180;23;20445;-78
2023/10/13 11:48:43;;;;;;;8.60;6.70;;;24.30;76.20;;;;;;6022526;23;20392;-78
2023/10/13 11:51:32;;;;;;;7.43;5.90;;;24.50;75.40;;;;;;6068948;23;20445;-78
2023/10/13 11:54:28;;;;;;;9.10;6.60;;;24.40;75.50;;;;;;6054996;23;20497;-79
2023/10/13 11:56:58;;;;;;;9.83;6.63;;;24.80;74.60;;;;;;6119702;23;20388;-79
2023/10/13 12:00:25;;;;;;;11.60;6.90;;;24.70;74.00;;;;;;6097425;23;20396;-79
2023/10/13 12:20:18;;;;;;;11.30;7.37;;;24.50;70.70;;;;;;6177940;23;20457;-79
2023/10/13 12:22:56;;;;;;;8.80;5.90;;;24.40;69.60;;;;;;6182460;23;20382;-79
2023/10/13 12:25:34;;;;;;;15.13;7.50;;;24.50;70.10;;;;;;6103993;23;20417;-78
2023/10/13 12:31:12;;;;;;;9.37;5.90;;;24.30;69.70;;;;;;6120814;23;20430;-78
2023/10/13 12:33:40;;;;;;;9.13;6.30;;;24.20;69.40;;;;;;6097262;23;20444;-77
2023/10/13 12:36:14;;;;;;;8.67;6.07;;;24.10;69.90;;;;;;6097510;23;20451;-78
2023/10/13 12:48:55;;;;;;;10.63;6.20;;;24.00;69.70;;;;;;6041832;23;20378;-78
2023/10/13 12:53:36;;;;;;;9.70;6.90;;;24.10;68.10;;;;;;6145150;23;20431;-80
2023/10/13 12:56:04;;;;;;;17.07;10.10;;;24.00;67.60;;;;;;6127667;23;20411;-78
2023/10/13 13:01:41;;;;;;;11.93;6.00;;;24.00;66.20;;;;;;5984567;24;20391;-80
2023/10/13 13:04:20;;;;;;;9.43;5.83;;;24.00;66.10;;;;;;5984671;23;20403;-78
2023/10/13 13:15:54;;;;;;;9.90;5.63;;;24.00;65.50;;;;;;6171563;23;20541;-78
2023/10/13 13:18:24;;;;;;;10.80;5.90;;;24.00;64.90;;;;;;6156519;23;20482;-79
2023/10/13 13:21:19;;;;;;;9.33;5.60;;;23.90;64.60;;;;;;6133759;23;20387;-80
2023/10/13 13:23:47;;;;;;;9.27;6.70;;;23.90;64.80;;;;;;6151649;23;20443;-79
2023/10/13 13:26:40;;;;;;;9.33;5.93;;;23.80;65.30;;;;;;6127791;23;20380;-78
2023/10/13 13:29:39;;;;;;;11.70;5.80;;;23.70;65.40;;;;;;6057597;23;20474;-78
2023/10/13 13:32:07;;;;;;;15.17;5.20;;;23.60;65.20;;;;;;6103247;23;20388;-78
2023/10/13 13:34:34;;;;;;;11.00;5.90;;;23.60;65.20;;;;;;6084417;23;20435;-77
2023/10/13 13:37:03;;;;;;;15.10;7.70;;;23.60;65.30;;;;;;6127523;23;20372;-79
2023/10/13 13:39:45;;;;;;;11.83;6.90;;;23.50;65.30;;;;;;6128067;23;20448;-79
2023/10/13 13:42:17;;;;;;;10.33;6.20;;;23.50;65.30;;;;;;6126992;23;20769;-78
2023/10/13 13:45:08;;;;;;;12.80;5.97;;;23.60;65.10;;;;;;6130433;23;20452;-78
2023/10/13 13:47:44;;;;;;;17.63;6.57;;;23.60;65.60;;;;;;6122414;23;20385;-79
2023/10/13 13:50:23;;;;;;;10.13;5.40;;;23.50;65.90;;;;;;6067698;23;20378;-77
2023/10/13 13:56:30;;;;;;;11.43;6.27;;;23.40;66.40;;;;;;6161603;23;20429;-78
2023/10/13 13:59:26;;;;;;;11.30;6.13;;;23.40;66.90;;;;;;6093295;23;20386;-79
2023/10/13 14:01:59;;;;;;;10.17;6.10;;;23.50;66.80;;;;;;6183935;23;20381;-77
2023/10/13 14:10:31;;;;;;;9.60;6.37;;;23.50;65.20;;;;;;6126450;23;20454;-79
2023/10/13 14:22:24;;;;;;;10.77;6.43;;;23.80;64.20;;;;;;6094520;23;20424;-78
2023/10/13 14:39:46;;;;;;;8.23;5.40;;;23.40;66.80;;;;;;6133899;23;20428;-78
2023/10/13 14:42:22;;;;;;;9.10;5.23;;;23.40;66.10;;;;;;6075383;23;20404;-76
2023/10/13 14:51:55;;;;;;;9.50;5.63;;;23.30;65.80;;;;;;6119639;23;20420;-78
2023/10/13 14:54:36;;;;;;;7.80;5.03;;;23.20;65.60;;;;;;6099577;23;20435;-78
2023/10/13 14:59:57;;;;;;;10.53;5.53;;;23.00;65.90;;;;;;6136688;23;20435;-78
2023/10/13 15:02:46;;;;;;;8.67;6.13;;;23.00;65.70;;;;;;6051988;23;20388;-77
2023/10/13 15:05:18;;;;;;;8.70;5.10;;;23.00;65.40;;;;;;6111584;23;20475;-79
2023/10/13 15:07:59;;;;;;;9.03;6.20;;;22.90;65.50;;;;;;6152983;23;20379;-78
2023/10/13 15:13:22;;;;;;;7.03;5.07;;;22.90;64.80;;;;;;6114192;23;20467;31
2023/10/13 15:16:10;;;;;;;6.30;4.50;;;22.80;63.90;;;;;;6066333;23;20445;-78
2023/10/13 15:21:50;;;;;;;10.73;5.43;;;22.80;63.30;;;;;;6124285;23;20447;-78
2023/10/13 15:24:21;;;;;;;7.73;5.70;;;22.90;63.70;;;;;;6052078;23;20407;-78
2023/10/13 15:35:28;;;;;;;11.40;5.03;;;22.60;63.70;;;;;;6003162;23;20466;-79
2023/10/13 15:38:02;;;;;;;7.60;5.33;;;22.70;63.90;;;;;;6034969;23;20435;-78
2023/10/13 15:40:30;;;;;;;11.10;6.20;;;22.60;64.00;;;;;;6011448;23;20384;-77
2023/10/13 15:43:16;;;;;;;6.97;4.57;;;22.70;64.10;;;;;;6033090;23;20722;-77
2023/10/13 15:45:46;;;;;;;7.23;5.23;;;22.60;64.00;;;;;;6002368;23;20438;-78
2023/10/13 15:59:18;;;;;;;15.10;6.70;;;22.30;65.90;;;;;;6142089;23;20443;-79
2023/10/13 16:02:11;;;;;;;14.93;6.40;;;22.20;66.90;;;;;;6121047;23;20420;-78
2023/10/13 16:04:41;;;;;;;8.13;5.67;;;22.20;66.50;;;;;;6108533;23;20485;-78
2023/10/13 16:10:17;;;;;;;11.13;5.93;;;22.30;66.20;;;;;;6123328;23;20445;-78
2023/10/13 16:12:47;;;;;;;7.57;5.23;;;22.30;66.20;;;;;;6067132;23;20397;-78
2023/10/13 16:17:49;;;;;;;10.80;5.93;;;22.20;66.60;;;;;;6138694;23;20427;-79
2023/10/13 16:20:16;;;;;;;11.30;5.97;;;22.10;66.80;;;;;;6091921;23;20381;-78
2023/10/13 16:22:54;;;;;;;9.33;6.13;;;22.10;66.70;;;;;;6067483;23;20393;-78
2023/10/13 16:25:52;;;;;;;6.90;4.63;;;22.10;67.00;;;;;;6106735;23;20436;-78
2023/10/13 16:28:39;;;;;;;8.97;5.07;;;22.10;67.40;;;;;;6120686;23;20444;-79
2023/10/13 16:31:09;;;;;;;7.30;5.77;;;22.10;67.80;;;;;;6073262;23;20399;-78
2023/10/13 16:33:44;;;;;;;5.93;4.77;;;22.00;68.10;;;;;;6072185;23;20447;-78
2023/10/13 16:36:13;;;;;;;6.37;4.70;;;22.00;68.60;;;;;;6098010;23;20428;-79
2023/10/13 16:38:40;;;;;;;6.90;4.33;;;21.90;68.90;;;;;;6120892;23;20416;-78
2023/10/13 16:41:12;;;;;;;5.80;5.17;;;21.90;69.50;;;;;;6119561;23;20404;-79
2023/10/13 16:43:39;;;;;;;5.93;5.00;;;21.80;70.00;;;;;;6097546;23;20416;-77
2023/10/13 16:46:23;;;;;;;8.53;6.00;;;21.70;70.50;;;;;;6072518;23;20377;-78
2023/10/13 16:48:56;;;;;;;8.60;4.57;;;21.70;71.30;;;;;;6098473;23;20376;-79
2023/10/13 16:57:03;;;;;;;8.53;5.10;;;21.50;72.90;;;;;;6109120;23;20462;-77
2023/10/13 17:06:16;;;;;;;6.33;4.70;;;21.40;74.50;;;;;;6115082;23;20531;-78
2023/10/13 17:09:11;;;;;;;6.80;5.13;;;21.30;75.20;;;;;;6005254;23;20430;-79
2023/10/13 17:11:52;;;;;;;6.50;5.30;;;21.30;76.10;;;;;;6021366;23;20361;-79
2023/10/13 17:14:19;;;;;;;8.40;6.50;;;21.20;76.60;;;;;;5961860;24;20448;-79
2023/10/13 17:16:48;;;;;;;8.23;6.40;;;21.20;76.90;;;;;;5925678;24;20383;-78
2023/10/13 17:45:52;;;;;;;12.30;7.40;;;21.00;81.70;;;;;;6132830;23;20445;-78
2023/10/13 17:48:19;;;;;;;10.47;7.70;;;20.90;82.50;;;;;;6153310;23;20383;-79
2023/10/13 17:50:47;;;;;;;11.40;9.13;;;20.80;84.30;;;;;;6128974;23;20366;-78
2023/10/13 17:53:17;;;;;;;11.07;7.70;;;20.80;84.50;;;;;;6103905;23;20408;-79
2023/10/13 17:55:43;;;;;;;8.20;6.97;;;20.80;85.20;;;;;;6122579;23;20436;-79
2023/10/13 17:58:10;;;;;;;8.93;6.33;;;20.80;85.70;;;;;;6100184;23;20388;-78
2023/10/13 18:00:39;;;;;;;11.70;6.70;;;20.80;86.10;;;;;;6122322;23;20508;-79
2023/10/13 18:03:40;;;;;;;8.27;5.40;;;20.70;86.40;;;;;;6127610;23;20461;-78
2023/10/13 18:06:20;;;;;;;8.97;5.63;;;20.70;86.80;;;;;;6105606;23;20398;-78
2023/10/13 18:09:12;;;;;;;7.03;5.70;;;20.70;87.30;;;;;;6130587;23;20407;-78
2023/10/13 18:17:02;;;;;;;7.93;5.67;;;20.60;88.60;;;;;;6147346;23;20425;-78
2023/10/13 18:19:33;;;;;;;8.63;7.00;;;20.60;89.00;;;;;;6183130;23;20383;-78
2023/10/13 18:22:03;;;;;;;8.93;6.20;;;20.60;89.40;;;;;;6183624;23;20371;-79
2023/10/13 18:24:35;;;;;;;7.93;6.70;;;20.60;89.70;;;;;;6177464;23;20423;-79
2023/10/13 18:27:09;;;;;;;8.67;6.20;;;20.60;89.90;;;;;;6153714;23;20360;-78
2023/10/13 18:29:38;;;;;;;8.40;6.60;;;20.60;90.00;;;;;;6154914;23;20390;-76
2023/10/13 18:32:20;;;;;;;8.90;6.03;;;20.60;90.10;;;;;;6154318;23;20364;-78
2023/10/13 18:34:49;;;;;;;6.33;5.63;;;20.60;90.20;;;;;;6125645;23;20478;-79
2023/10/13 18:38:10;;;;;;;9.23;5.90;;;20.60;90.40;;;;;;6148227;23;20380;-79
2023/10/13 18:43:27;;;;;;;7.63;5.40;;;20.50;90.70;;;;;;6138847;23;20451;-78
2023/10/13 18:46:54;;;;;;;6.87;5.87;;;20.50;90.90;;;;;;6153842;23;20364;-78
2023/10/13 18:52:41;;;;;;;13.37;7.30;;;20.50;91.30;;;;;;6142420;23;20450;-79
2023/10/13 18:55:25;;;;;;;10.27;7.63;;;20.50;91.50;;;;;;6108757;23;20455;-78
2023/10/13 19:11:56;;;;;;;11.73;7.43;;;20.50;92.40;;;;;;6126265;23;20443;-78
2023/10/13 19:14:32;;;;;;;10.50;7.90;;;20.50;92.30;;;;;;6070862;23;20488;-79
2023/10/13 19:17:00;;;;;;;8.40;6.53;;;20.50;92.00;;;;;;6044510;23;20402;-79
2023/10/13 19:19:26;;;;;;;9.13;6.37;;;20.60;91.80;;;;;;6069799;23;20373;-78
2023/10/13 19:21:57;;;;;;;9.00;6.50;;;20.60;91.30;;;;;;6047231;23;20413;-78
2023/10/13 19:30:11;;;;;;;11.17;7.17;;;20.60;91.00;;;;;;6129996;23;20442;-78
2023/10/13 19:32:41;;;;;;;12.73;7.77;;;20.60;90.80;;;;;;6152427;23;20363;-78
2023/10/13 19:35:41;;;;;;;10.70;7.30;;;20.70;90.30;;;;;;6130657;23;20553;-79
2023/10/13 19:41:28;;;;;;;8.57;5.90;;;20.80;87.20;;;;;;6123488;23;20451;-79